createdAt,value
2023-04-23T00:00:24.463Z,14.48
2023-04-23T00:03:27.771Z,12.80
2023-04-23T00:06:30.799Z,11.73
2023-04-23T00:09:33.022Z,11.90
2023-04-23T00:12:35.776Z,11.55
2023-04-23T00:15:38.512Z,12.07
2023-04-23T00:18:40.429Z,11.00
2023-04-23T00:21:42.832Z,15.32
2023-04-23T00:24:44.963Z,14.35
2023-04-23T00:27:47.921Z,17.95
2023-04-23T00:30:49.852Z,19.52
2023-04-23T00:33:52.043Z,16.08
2023-04-23T00:36:53.978Z,16.08
2023-04-23T00:39:56.059Z,21.80
2023-04-23T00:42:58.423Z,20.80
2023-04-23T00:46:00.639Z,18.63
2023-04-23T00:49:03.228Z,14.00
2023-04-23T00:52:06.069Z,15.65
2023-04-23T00:55:09.075Z,18.83
2023-04-23T00:58:11.096Z,17.98
2023-04-23T01:01:13.998Z,15.95
2023-04-23T01:04:17.917Z,13.88
2023-04-23T01:07:21.364Z,16.92
2023-04-23T01:10:23.657Z,12.35
2023-04-23T01:13:29.893Z,8.60
2023-04-23T01:16:31.942Z,7.40
2023-04-23T01:19:33.878Z,8.45
2023-04-23T01:22:37.823Z,7.78
2023-04-23T01:25:40.009Z,9.27
2023-04-23T01:28:43.669Z,9.18
2023-04-23T01:31:47.009Z,9.48
2023-04-23T01:34:49.341Z,9.38
2023-04-23T01:37:52.683Z,9.40
2023-04-23T01:40:54.653Z,8.48
2023-04-23T01:43:59.898Z,7.97
2023-04-23T01:47:01.921Z,12.50
2023-04-23T01:50:05.276Z,8.18
2023-04-23T01:53:07.320Z,6.95
2023-04-23T01:56:10.695Z,11.02
2023-04-23T01:59:12.664Z,8.25
2023-04-23T02:02:15.298Z,7.72
2023-04-23T02:05:19.110Z,10.50
2023-04-23T02:08:21.421Z,8.43
2023-04-23T02:11:24.166Z,10.18
2023-04-23T02:14:26.171Z,7.05
2023-04-23T02:17:29.303Z,8.57
2023-04-23T02:20:31.417Z,8.40
2023-04-23T02:23:33.507Z,9.68
2023-04-23T02:26:35.347Z,9.82
2023-04-23T02:29:38.107Z,11.52
2023-04-23T02:32:41.789Z,11.77
2023-04-23T02:35:43.700Z,13.98
2023-04-23T02:38:47.613Z,9.18
2023-04-23T02:41:49.520Z,7.97
2023-04-23T02:44:51.628Z,7.65
2023-04-23T02:47:53.621Z,7.07
2023-04-23T02:50:55.631Z,9.68
2023-04-23T02:53:58.126Z,6.68
2023-04-23T02:57:00.262Z,5.10
2023-04-23T03:00:04.283Z,5.63
2023-04-23T03:03:06.464Z,5.82
2023-04-23T03:06:08.601Z,4.90
2023-04-23T03:09:10.891Z,6.65
2023-04-23T03:12:12.912Z,5.15
2023-04-23T03:15:14.847Z,7.57
2023-04-23T03:18:16.766Z,5.75
2023-04-23T03:21:18.589Z,6.53
2023-04-23T03:24:20.669Z,5.10
2023-04-23T03:27:22.493Z,6.97
2023-04-23T03:30:24.812Z,12.32
2023-04-23T03:33:26.860Z,9.23
2023-04-23T03:36:29.290Z,10.20
2023-04-23T03:39:31.201Z,7.50
2023-04-23T03:42:34.235Z,6.22
2023-04-23T03:45:36.236Z,5.57
2023-04-23T03:48:38.098Z,7.47
2023-04-23T03:51:40.132Z,7.35
2023-04-23T03:54:42.285Z,8.15
2023-04-23T03:57:44.298Z,6.47
2023-04-23T04:00:47.352Z,9.05
2023-04-23T04:03:49.755Z,7.70
2023-04-23T04:06:51.912Z,7.55
2023-04-23T04:09:53.831Z,7.78
2023-04-23T04:12:56.234Z,10.43
2023-04-23T04:15:59.642Z,5.78
2023-04-23T04:19:01.866Z,4.82
2023-04-23T04:22:03.873Z,7.40
2023-04-23T04:25:07.006Z,7.38
2023-04-23T04:28:11.756Z,6.28
2023-04-23T04:31:16.038Z,9.73
2023-04-23T04:34:18.384Z,8.60
2023-04-23T04:37:21.410Z,7.10
2023-04-23T04:40:23.355Z,9.65
2023-04-23T04:43:25.249Z,13.90
2023-04-23T04:46:29.334Z,14.07
2023-04-23T04:49:31.366Z,9.80
2023-04-23T04:52:33.373Z,14.85
2023-04-23T04:55:35.234Z,14.93
2023-04-23T04:58:37.316Z,21.15
2023-04-23T05:01:39.316Z,23.67
2023-04-23T05:04:41.489Z,18.33
2023-04-23T05:07:43.685Z,11.98
2023-04-23T05:10:45.871Z,12.77
2023-04-23T05:13:48.847Z,11.45
2023-04-23T05:16:51.281Z,8.05
2023-04-23T05:19:53.223Z,8.50
2023-04-23T05:22:55.372Z,9.55
2023-04-23T05:25:58.774Z,7.93
2023-04-23T05:29:00.763Z,7.28
2023-04-23T05:32:02.724Z,6.57
2023-04-23T05:35:06.231Z,10.27
2023-04-23T05:38:12.377Z,80.18
2023-04-23T05:41:15.591Z,14.82
2023-04-23T05:44:17.410Z,12.18
2023-04-23T05:47:19.375Z,7.88
2023-04-23T05:50:22.009Z,23.70
2023-04-23T05:53:24.135Z,7.80
2023-04-23T05:56:26.089Z,34.70
2023-04-23T05:59:28.314Z,5.78
2023-04-23T06:02:34.003Z,7.07
2023-04-23T06:05:38.269Z,5.30
2023-04-23T06:08:40.679Z,7.57
2023-04-23T06:11:42.768Z,19.30
2023-04-23T06:14:44.774Z,5.53
2023-04-23T06:17:49.383Z,8.43
2023-04-23T06:23:54.640Z,10.00
2023-04-23T06:26:57.863Z,6.13
2023-04-23T06:30:01.911Z,7.78
2023-04-23T06:33:05.137Z,4.28
2023-04-23T06:36:11.001Z,4.93
2023-04-23T06:39:13.337Z,20.15
2023-04-23T06:42:15.255Z,7.50
2023-04-23T06:45:20.425Z,11.27
2023-04-23T06:48:22.807Z,4.60
2023-04-23T06:51:28.127Z,6.65
2023-04-23T06:54:32.395Z,5.43
2023-04-23T06:57:37.553Z,39.13
2023-04-23T07:00:44.412Z,7.78
2023-04-23T07:03:49.296Z,6.40
2023-04-23T07:07:00.319Z,10.05
2023-04-23T07:10:02.545Z,7.45
2023-04-23T07:13:04.844Z,7.18
2023-04-23T07:16:07.140Z,5.25
2023-04-23T07:19:09.319Z,5.28
2023-04-23T07:22:14.467Z,8.73
2023-04-23T07:25:22.673Z,7.80
2023-04-23T07:28:29.297Z,9.45
2023-04-23T07:31:35.569Z,22.30
2023-04-23T07:34:40.137Z,7.78
2023-04-23T07:37:44.637Z,8.82
2023-04-23T07:43:49.612Z,24.70
2023-04-23T07:46:54.666Z,7.40
2023-04-23T07:50:02.154Z,32.53
2023-04-23T07:53:05.308Z,19.50
2023-04-23T07:56:10.566Z,24.85
2023-04-23T07:59:12.805Z,7.90
2023-04-23T08:02:18.743Z,22.75
2023-04-23T08:05:23.974Z,4.95
2023-04-23T08:08:30.920Z,7.40
2023-04-23T08:11:37.765Z,69.30
2023-04-23T08:14:40.383Z,13.82
2023-04-23T08:17:45.158Z,63.60
2023-04-23T08:20:54.181Z,14.13
2023-04-23T08:23:58.699Z,114.68
2023-04-23T08:27:00.723Z,27.70
2023-04-23T08:30:05.102Z,24.33
2023-04-23T08:33:10.807Z,5.07
2023-04-23T08:36:12.927Z,32.55
2023-04-23T08:39:18.037Z,5.60
2023-04-23T08:42:58.972Z,4.93
2023-04-23T08:46:06.189Z,64.30
2023-04-23T08:49:09.227Z,8.88
2023-04-23T08:52:23.178Z,16.58
2023-04-23T08:55:26.288Z,13.27
2023-04-23T08:58:34.288Z,17.20
2023-04-23T09:01:39.305Z,16.70
2023-04-23T09:04:45.924Z,29.80
2023-04-23T09:07:50.930Z,17.42
2023-04-23T09:10:59.176Z,8.30
2023-04-23T09:14:02.170Z,21.20
2023-04-23T09:17:07.039Z,12.18
2023-04-23T09:20:09.967Z,13.60
2023-04-23T09:23:21.723Z,19.23
2023-04-23T09:26:23.785Z,31.23
2023-04-23T09:29:26.854Z,9.30
2023-04-23T09:32:34.816Z,6.63
2023-04-23T09:35:40.724Z,19.17
2023-04-23T09:38:43.062Z,59.35
2023-04-23T09:41:48.328Z,8.32
2023-04-23T09:45:04.762Z,7.55
2023-04-23T09:48:07.021Z,46.05
2023-04-23T09:51:09.302Z,9.30
2023-04-23T09:54:18.579Z,5.63
2023-04-23T09:57:20.593Z,6.93
2023-04-23T10:00:25.852Z,6.65
2023-04-23T10:03:30.933Z,6.43
2023-04-23T10:06:44.292Z,7.80
2023-04-23T10:09:51.808Z,6.40
2023-04-23T10:12:57.339Z,6.75
2023-04-23T10:16:13.894Z,5.57
2023-04-23T10:19:19.703Z,6.70
2023-04-23T10:22:22.917Z,18.05
2023-04-23T10:25:25.780Z,15.10
2023-04-23T10:28:33.688Z,14.93
2023-04-23T10:31:38.806Z,7.55
2023-04-23T10:34:42.159Z,7.88
2023-04-23T10:37:46.456Z,6.10
2023-04-23T10:40:51.058Z,11.35
2023-04-23T10:43:53.904Z,6.15
2023-04-23T10:46:58.470Z,9.80
2023-04-23T10:50:23.115Z,6.47
2023-04-23T10:53:26.388Z,5.90
2023-04-23T10:56:28.613Z,7.32
2023-04-23T10:59:32.215Z,75.95
2023-04-23T11:02:44.955Z,9.18
2023-04-23T11:05:47.031Z,33.90
2023-04-23T11:08:56.850Z,48.72
2023-04-23T11:12:01.525Z,30.73
2023-04-23T11:15:15.173Z,75.22
2023-04-23T11:18:17.263Z,56.78
2023-04-23T11:21:19.347Z,9.43
2023-04-23T11:24:23.051Z,6.32
2023-04-23T11:27:25.529Z,8.77
2023-04-23T11:30:29.956Z,33.58
2023-04-23T11:33:32.142Z,8.68
2023-04-23T11:36:34.713Z,11.30
2023-04-23T11:39:44.264Z,8.75
2023-04-23T11:42:51.357Z,117.25
2023-04-23T11:45:55.877Z,11.70
2023-04-23T11:49:00.130Z,8.90
2023-04-23T11:52:02.233Z,5.70
2023-04-23T11:55:06.587Z,4.88
2023-04-23T11:58:08.536Z,8.07
2023-04-23T12:01:13.472Z,12.85
2023-04-23T12:04:27.080Z,11.60
2023-04-23T12:07:32.927Z,13.43
2023-04-23T12:10:50.123Z,6.55
2023-04-23T12:13:53.990Z,7.85
2023-04-23T12:16:57.320Z,8.07
2023-04-23T12:19:59.272Z,9.80
2023-04-23T12:23:05.488Z,10.50
2023-04-23T12:26:15.692Z,112.53
2023-04-23T12:29:18.312Z,25.85
2023-04-23T12:32:27.052Z,5.88
2023-04-23T12:35:58.480Z,86.85
2023-04-23T12:39:32.086Z,10.40
2023-04-23T12:42:34.688Z,21.85
2023-04-23T12:45:39.626Z,14.82
2023-04-23T12:48:41.606Z,61.38
2023-04-23T12:51:43.738Z,107.47
2023-04-23T12:54:45.845Z,69.78
2023-04-23T12:57:47.770Z,74.72
2023-04-23T13:00:49.682Z,7.80
2023-04-23T13:03:52.101Z,4.40
2023-04-23T13:06:54.567Z,4.85
2023-04-23T13:09:57.746Z,29.52
2023-04-23T13:12:59.762Z,30.05
2023-04-23T13:16:02.125Z,12.82
2023-04-23T13:19:05.213Z,11.35
2023-04-23T13:22:07.199Z,15.45
2023-04-23T13:25:09.647Z,12.73
2023-04-23T13:28:11.613Z,31.35
2023-04-23T13:31:14.275Z,14.93
2023-04-23T13:34:16.738Z,13.10
2023-04-23T13:37:18.740Z,27.60
2023-04-23T13:40:20.837Z,25.67
2023-04-23T13:43:22.972Z,9.93
2023-04-23T13:49:29.644Z,4.57
2023-04-23T13:52:34.735Z,11.45
2023-04-23T13:55:37.212Z,4.38
2023-04-23T13:58:42.890Z,8.90
2023-04-23T14:01:47.237Z,10.73
2023-04-23T14:05:09.848Z,5.90
2023-04-23T14:08:13.052Z,9.10
2023-04-23T14:11:15.052Z,9.77
2023-04-23T14:14:16.904Z,11.05
2023-04-23T14:17:18.822Z,21.50
2023-04-23T14:20:20.938Z,83.22
2023-04-23T14:23:22.834Z,13.80
2023-04-23T14:26:46.709Z,7.32
2023-04-23T14:29:55.922Z,12.73
2023-04-23T14:32:57.846Z,6.07
2023-04-23T14:35:59.755Z,8.65
2023-04-23T14:39:05.123Z,35.10
2023-04-23T14:42:06.972Z,8.00
2023-04-23T14:45:09.270Z,6.18
2023-04-23T14:48:12.465Z,38.65
2023-04-23T14:51:14.383Z,12.50
2023-04-23T14:54:17.436Z,14.45
2023-04-23T14:57:19.349Z,6.25
2023-04-23T15:00:22.381Z,4.22
2023-04-23T15:03:24.546Z,7.90
2023-04-23T15:06:26.862Z,7.03
2023-04-23T15:09:28.687Z,6.45
2023-04-23T15:12:53.693Z,6.97
2023-04-23T15:16:00.158Z,7.18
2023-04-23T15:19:06.390Z,6.55
2023-04-23T15:22:08.436Z,6.47
2023-04-23T15:25:10.993Z,6.78
2023-04-23T15:28:12.887Z,11.13
2023-04-23T15:31:14.933Z,13.45
2023-04-23T15:34:16.802Z,5.88
2023-04-23T15:37:21.113Z,5.03
2023-04-23T15:40:23.364Z,5.38
2023-04-23T15:43:25.532Z,28.08
2023-04-23T15:46:27.361Z,6.15
2023-04-23T15:49:31.696Z,8.73
2023-04-23T15:52:33.749Z,6.93
2023-04-23T15:55:35.851Z,4.65
2023-04-23T15:58:38.144Z,7.80
2023-04-23T16:01:40.358Z,59.95
2023-04-23T16:04:43.003Z,4.15
2023-04-23T16:07:45.308Z,51.33
2023-04-23T16:10:47.410Z,9.68
2023-04-23T16:13:49.582Z,108.70
2023-04-23T16:16:52.215Z,5.13
2023-04-23T16:19:54.320Z,4.80
2023-04-23T16:22:56.434Z,5.15
2023-04-23T16:25:58.458Z,5.65
2023-04-23T16:32:07.103Z,11.43
2023-04-23T16:35:11.866Z,5.82
2023-04-23T16:38:14.021Z,10.82
2023-04-23T16:41:17.673Z,10.32
2023-04-23T16:44:19.765Z,10.95
2023-04-23T16:47:21.925Z,32.92
2023-04-23T16:50:24.160Z,6.10
2023-04-23T16:53:26.298Z,12.38
2023-04-23T16:56:28.534Z,11.80
2023-04-23T16:59:31.020Z,8.82
2023-04-23T17:02:34.612Z,5.50
2023-04-23T17:05:39.175Z,69.88
2023-04-23T17:08:41.487Z,4.75
2023-04-23T17:11:43.550Z,104.18
2023-04-23T17:14:45.549Z,16.08
2023-04-23T17:17:47.536Z,16.40
2023-04-23T17:20:50.642Z,28.23
2023-04-23T17:23:53.181Z,5.10
2023-04-23T17:26:55.086Z,22.75
2023-04-23T17:29:58.932Z,25.52
2023-04-23T17:33:01.192Z,12.70
2023-04-23T17:36:04.560Z,17.80
2023-04-23T17:39:07.660Z,7.70
2023-04-23T17:42:10.461Z,6.88
2023-04-23T17:45:12.955Z,5.05
2023-04-23T17:48:15.666Z,5.95
2023-04-23T17:51:18.864Z,6.30
2023-04-23T17:54:24.754Z,8.75
2023-04-23T18:00:29.239Z,18.17
2023-04-23T18:03:32.302Z,13.80
2023-04-23T18:06:36.056Z,17.67
2023-04-23T18:09:38.573Z,17.65
2023-04-23T18:12:40.906Z,25.77
2023-04-23T18:15:49.800Z,37.97
2023-04-23T18:18:52.132Z,54.75
2023-04-23T18:21:57.560Z,47.20
2023-04-23T18:24:59.777Z,46.83
2023-04-23T18:28:02.337Z,47.05
2023-04-23T18:31:04.783Z,54.80
2023-04-23T18:34:10.739Z,25.45
2023-04-23T18:37:33.221Z,54.53
2023-04-23T18:40:48.752Z,30.48
2023-04-23T18:43:51.561Z,39.78
2023-04-23T18:46:53.858Z,87.45
2023-04-23T18:50:03.645Z,83.15
2023-04-23T18:53:06.627Z,84.78
2023-04-23T18:56:11.058Z,62.03
2023-04-23T18:59:15.751Z,66.43
2023-04-23T19:02:28.221Z,70.95
2023-04-23T19:05:37.293Z,85.13
2023-04-23T19:08:42.946Z,85.20
2023-04-23T19:11:45.369Z,93.65
2023-04-23T19:14:50.538Z,83.38
2023-04-23T19:17:53.064Z,86.78
2023-04-23T19:20:55.742Z,121.25
2023-04-23T19:23:58.100Z,88.78
2023-04-23T19:27:00.969Z,68.20
2023-04-23T19:30:05.220Z,69.88
2023-04-23T19:33:07.608Z,53.42
2023-04-23T19:36:10.413Z,54.97
2023-04-23T19:39:12.762Z,53.95
2023-04-23T19:42:15.257Z,63.17
2023-04-23T19:45:18.477Z,67.18
2023-04-23T19:48:20.807Z,71.90
2023-04-23T19:51:27.994Z,75.95
2023-04-23T19:54:30.683Z,82.78
2023-04-23T19:57:33.071Z,62.63
2023-04-23T20:00:39.110Z,92.50
2023-04-23T20:03:43.819Z,109.15
2023-04-23T20:06:46.096Z,136.07
2023-04-23T20:09:48.227Z,207.02
2023-04-23T20:12:50.362Z,149.68
2023-04-23T20:15:55.718Z,174.32
2023-04-23T20:18:57.963Z,167.07
2023-04-23T20:22:07.716Z,158.25
2023-04-23T20:25:10.209Z,132.70
2023-04-23T20:28:12.252Z,127.10
2023-04-23T20:31:15.016Z,124.75
2023-04-23T20:34:17.300Z,95.15
2023-04-23T20:37:21.677Z,70.40
2023-04-23T20:40:25.023Z,88.47
2023-04-23T20:43:27.003Z,64.25
2023-04-23T20:46:32.512Z,69.53
2023-04-23T20:49:34.821Z,65.10
2023-04-23T20:52:37.086Z,64.13
2023-04-23T20:55:39.140Z,57.67
2023-04-23T20:58:41.909Z,63.97
2023-04-23T21:01:43.917Z,61.58
2023-04-23T21:04:45.863Z,58.63
2023-04-23T21:07:50.760Z,45.97
2023-04-23T21:10:52.893Z,37.80
2023-04-23T21:14:00.170Z,34.65
2023-04-23T21:17:02.780Z,33.03
2023-04-23T21:20:05.773Z,25.80
2023-04-23T21:23:10.062Z,26.25
2023-04-23T21:26:12.341Z,25.92
2023-04-23T21:29:14.419Z,19.63
2023-04-23T21:32:16.687Z,22.52
2023-04-23T21:35:19.588Z,22.50
2023-04-23T21:38:21.654Z,27.40
2023-04-23T21:41:24.577Z,30.30
2023-04-23T21:44:28.579Z,28.23
2023-04-23T21:47:30.469Z,20.52
2023-04-23T21:50:36.203Z,20.75
2023-04-23T21:53:41.284Z,39.60
2023-04-23T21:56:50.752Z,45.47
2023-04-23T21:59:52.718Z,41.92
2023-04-23T22:03:00.809Z,32.03
2023-04-23T22:06:04.377Z,40.35
2023-04-23T22:09:07.410Z,45.95
2023-04-23T22:12:10.112Z,58.25
2023-04-23T22:15:19.516Z,58.10
2023-04-23T22:18:21.580Z,38.50
2023-04-23T22:21:23.459Z,49.70
2023-04-23T22:24:25.347Z,43.42
2023-04-23T22:27:27.233Z,40.58
2023-04-23T22:30:30.722Z,34.85
2023-04-23T22:33:32.706Z,42.80
2023-04-23T22:36:34.607Z,33.67
2023-04-23T22:39:36.677Z,39.10
2023-04-23T22:42:38.656Z,37.58
2023-04-23T22:45:40.728Z,34.00
2023-04-23T22:48:45.006Z,29.77
2023-04-23T22:51:47.433Z,24.50
2023-04-23T22:54:49.979Z,24.13
2023-04-23T22:57:52.016Z,35.60
2023-04-23T23:00:55.105Z,35.17
2023-04-23T23:03:57.285Z,23.60
2023-04-23T23:06:59.174Z,21.30
2023-04-23T23:10:01.110Z,14.55
2023-04-23T23:13:03.053Z,17.90
2023-04-23T23:16:05.933Z,18.17
2023-04-23T23:19:08.330Z,17.15
2023-04-23T23:22:10.307Z,16.95
2023-04-23T23:25:12.772Z,14.18
2023-04-23T23:28:14.650Z,13.23
2023-04-23T23:31:16.992Z,24.65
2023-04-23T23:34:19.339Z,21.48
2023-04-23T23:37:21.560Z,20.73
2023-04-23T23:40:23.649Z,18.45
2023-04-23T23:43:25.794Z,28.10
2023-04-23T23:46:28.141Z,24.75
2023-04-23T23:49:30.277Z,24.70
2023-04-23T23:52:32.373Z,25.05
2023-04-23T23:55:34.277Z,26.08
2023-04-23T23:58:36.585Z,22.58
